Time;durP1;ratioP1;P1;durP2;ratioP2;P2;SDS_P1;SDS_P2;PMS_P1;PMS_P2;Temp;Humidity;BMP_temperature;BMP_pressure;BME280_temperature;BME280_humidity;BME280_pressure;Samples;Min_cycle;Max_cycle;Signal;HPM_P1;HPM_P2
2022/06/27 00:00:10;;;;;;;4.47;3.65;;;22.50;99.90;;;;;;5053696;28;20212;-84
2022/06/27 00:02:38;;;;;;;4.63;4.22;;;22.50;99.90;;;;;;5053672;28;20226;-84
2022/06/27 00:05:08;;;;;;;4.10;3.80;;;22.40;99.90;;;;;;5053586;28;20210;-84
2022/06/27 00:07:37;;;;;;;6.35;3.72;;;22.40;99.90;;;;;;5053488;28;20292;-84
2022/06/27 00:10:07;;;;;;;4.25;3.85;;;22.40;99.90;;;;;;5053277;28;20293;-84
2022/06/27 00:12:36;;;;;;;4.70;4.30;;;22.40;99.90;;;;;;5053163;28;20317;-84
2022/06/27 00:15:08;;;;;;;4.88;4.07;;;22.30;99.90;;;;;;5053342;28;20201;-84
2022/06/27 00:17:36;;;;;;;4.07;3.78;;;22.30;99.90;;;;;;5053471;28;20301;-84
2022/06/27 00:20:05;;;;;;;3.67;3.40;;;22.30;99.90;;;;;;5053378;28;20206;-84
2022/06/27 00:22:33;;;;;;;3.38;3.03;;;22.30;99.90;;;;;;5053179;28;20321;-84
2022/06/27 00:25:02;;;;;;;3.50;3.20;;;22.30;99.90;;;;;;5053110;28;20236;-84
2022/06/27 00:27:30;;;;;;;3.47;3.17;;;22.30;99.90;;;;;;5053155;28;20201;-84
2022/06/27 00:29:59;;;;;;;4.00;3.65;;;22.30;99.90;;;;;;5052943;28;20284;-84
2022/06/27 00:32:29;;;;;;;3.72;3.40;;;22.30;99.90;;;;;;5053163;28;20225;-84
2022/06/27 00:34:57;;;;;;;3.30;2.97;;;22.30;99.90;;;;;;5053443;28;20190;-84
2022/06/27 00:37:25;;;;;;;2.92;2.72;;;22.30;99.90;;;;;;5052137;28;20201;-84
2022/06/27 00:39:54;;;;;;;2.92;2.72;;;22.20;99.90;;;;;;5052854;28;20205;-84
2022/06/27 00:42:22;;;;;;;2.85;2.65;;;22.30;99.90;;;;;;5052605;28;20316;-84
2022/06/27 00:44:50;;;;;;;3.13;2.92;;;22.20;99.90;;;;;;5053117;28;20206;-84
2022/06/27 00:47:20;;;;;;;3.35;2.92;;;22.20;99.90;;;;;;5052770;28;20244;-83
2022/06/27 00:49:50;;;;;;;2.85;2.65;;;22.20;99.90;;;;;;5052905;28;20209;-84
2022/06/27 00:52:18;;;;;;;2.95;2.75;;;22.20;99.90;;;;;;5052486;28;20328;-84
2022/06/27 00:54:48;;;;;;;3.05;2.75;;;22.20;99.90;;;;;;5052377;28;20265;-84
2022/06/27 00:57:17;;;;;;;2.63;2.42;;;22.20;99.90;;;;;;5052561;28;20228;-84
2022/06/27 00:59:46;;;;;;;3.33;2.78;;;22.20;99.90;;;;;;5052677;28;20236;-84
2022/06/27 01:02:15;;;;;;;2.45;2.25;;;22.20;99.90;;;;;;5052190;28;20260;-84
2022/06/27 01:04:43;;;;;;;2.35;2.25;;;22.20;99.90;;;;;;5052395;28;20221;-84
2022/06/27 01:07:13;;;;;;;2.95;2.38;;;22.10;99.90;;;;;;5052467;28;20216;-84
2022/06/27 01:09:43;;;;;;;2.55;2.00;;;22.10;99.90;;;;;;5052858;28;20266;-84
2022/06/27 01:12:12;;;;;;;2.20;2.00;;;22.20;99.90;;;;;;5052287;28;20297;-84
2022/06/27 01:14:40;;;;;;;2.20;2.00;;;22.10;99.90;;;;;;5052297;28;20210;-84
2022/06/27 01:17:10;;;;;;;2.10;1.90;;;22.10;99.90;;;;;;5052722;28;20288;-84
2022/06/27 01:19:39;;;;;;;2.00;1.90;;;22.10;99.90;;;;;;5052334;28;20293;-84
2022/06/27 01:22:10;;;;;;;3.03;2.83;;;22.10;99.90;;;;;;5052420;28;20313;-84
2022/06/27 01:24:38;;;;;;;3.70;3.35;;;22.10;99.90;;;;;;5052810;28;20236;-84
2022/06/27 01:27:08;;;;;;;4.05;3.08;;;22.00;99.90;;;;;;5052868;28;20285;-84
2022/06/27 01:29:36;;;;;;;4.20;3.58;;;22.00;99.90;;;;;;5052379;28;20207;-84
2022/06/27 01:32:05;;;;;;;4.15;2.90;;;21.90;99.90;;;;;;5051928;28;20225;-84
2022/06/27 01:34:33;;;;;;;3.33;3.03;;;21.90;99.90;;;;;;5052694;28;20265;-84
2022/06/27 01:37:02;;;;;;;3.00;2.80;;;21.80;99.90;;;;;;5052611;28;20289;-84
2022/06/27 01:39:32;;;;;;;3.97;3.67;;;21.80;99.90;;;;;;5052625;28;20289;-84
2022/06/27 01:42:02;;;;;;;3.50;3.20;;;21.70;99.90;;;;;;5052309;28;20309;-84
2022/06/27 01:44:32;;;;;;;3.60;3.30;;;21.70;99.90;;;;;;5052259;28;20215;-84
2022/06/27 01:47:08;;;;;;;3.67;3.38;;;21.70;99.90;;;;;;5052757;28;20276;-84
2022/06/27 01:49:38;;;;;;;3.63;3.40;;;21.60;99.90;;;;;;5055922;28;20284;-84
2022/06/27 01:52:08;;;;;;;4.57;4.03;;;21.60;99.90;;;;;;5055984;28;20304;-84
2022/06/27 01:54:38;;;;;;;6.63;4.20;;;21.50;99.90;;;;;;5056066;28;20236;-84
2022/06/27 01:57:08;;;;;;;3.92;3.63;;;21.50;99.90;;;;;;5055953;28;20214;-84
2022/06/27 01:59:37;;;;;;;3.15;2.95;;;21.50;99.90;;;;;;5056255;28;20228;-84
2022/06/27 02:02:07;;;;;;;3.17;2.97;;;21.40;99.90;;;;;;5055504;28;20230;-83
2022/06/27 02:04:37;;;;;;;4.30;3.67;;;21.40;99.90;;;;;;5055858;28;20211;-84
2022/06/27 02:07:06;;;;;;;3.83;3.50;;;21.40;99.90;;;;;;5055659;28;20280;-83
2022/06/27 02:09:37;;;;;;;2.85;2.65;;;21.40;99.90;;;;;;5055760;28;20205;-84
2022/06/27 02:12:19;;;;;;;3.00;2.80;;;21.40;99.90;;;;;;5055332;28;20285;-84
2022/06/27 02:14:49;;;;;;;3.83;3.53;;;21.40;99.90;;;;;;5055521;28;20237;-84
2022/06/27 02:17:18;;;;;;;4.80;3.78;;;21.30;99.90;;;;;;5055427;28;20229;-84
2022/06/27 02:19:46;;;;;;;3.00;2.80;;;21.30;99.90;;;;;;5055605;28;20261;-84
2022/06/27 02:22:14;;;;;;;6.35;3.75;;;21.30;99.90;;;;;;5055415;28;20430;-84
2022/06/27 02:24:45;;;;;;;4.03;3.72;;;21.30;99.90;;;;;;5055369;28;20208;-84
2022/06/27 02:27:13;;;;;;;3.50;3.17;;;21.30;99.90;;;;;;5055296;28;20206;-83
2022/06/27 02:29:41;;;;;;;4.22;3.83;;;21.30;99.90;;;;;;5055304;28;20285;-84
2022/06/27 02:32:11;;;;;;;3.60;3.30;;;21.30;99.90;;;;;;5055095;28;20312;-83
2022/06/27 02:34:40;;;;;;;3.65;3.42;;;21.20;99.90;;;;;;5055680;28;20236;-84
2022/06/27 02:37:10;;;;;;;10.93;3.55;;;21.30;99.90;;;;;;5055108;28;20301;-83
2022/06/27 02:39:41;;;;;;;3.90;3.58;;;21.20;99.90;;;;;;5055088;28;20206;-83
2022/06/27 02:42:12;;;;;;;4.40;3.60;;;21.20;99.90;;;;;;5054964;28;20217;-83
2022/06/27 02:44:40;;;;;;;3.55;3.25;;;21.20;99.90;;;;;;5055187;28;20240;-83
2022/06/27 02:47:09;;;;;;;3.58;3.38;;;21.20;99.90;;;;;;5055325;28;20296;-83
2022/06/27 02:49:37;;;;;;;4.30;3.92;;;21.20;99.90;;;;;;5055148;28;20210;-83
2022/06/27 02:52:13;;;;;;;3.40;3.10;;;21.20;99.90;;;;;;5054818;28;20308;-84
2022/06/27 02:54:46;;;;;;;3.28;3.08;;;21.10;99.90;;;;;;5054843;28;20205;-83
2022/06/27 02:57:23;;;;;;;3.58;3.30;;;21.10;99.90;;;;;;5055181;28;20265;-83
2022/06/27 02:59:53;;;;;;;3.67;3.38;;;21.10;99.90;;;;;;5053966;28;20284;-84
2022/06/27 03:02:22;;;;;;;3.60;3.35;;;21.10;99.90;;;;;;5054348;28;20238;-83
2022/06/27 03:04:50;;;;;;;4.10;3.70;;;21.10;99.90;;;;;;5054603;28;20210;-83
2022/06/27 03:07:20;;;;;;;4.38;3.97;;;21.00;99.90;;;;;;5054383;28;20217;-83
2022/06/27 03:09:48;;;;;;;3.35;3.08;;;21.10;99.90;;;;;;5054593;28;20210;-84
2022/06/27 03:12:18;;;;;;;3.72;3.42;;;21.10;99.90;;;;;;5054534;28;20320;-83
2022/06/27 03:14:46;;;;;;;4.13;3.40;;;21.10;99.90;;;;;;5054444;28;20256;-83
2022/06/27 03:17:14;;;;;;;4.05;3.65;;;21.00;99.90;;;;;;5054573;28;20285;-83
2022/06/27 03:19:42;;;;;;;3.38;3.15;;;21.00;99.90;;;;;;5054221;28;20214;-83
2022/06/27 03:22:11;;;;;;;4.40;3.47;;;21.00;99.90;;;;;;5054359;28;20268;-83
2022/06/27 03:24:39;;;;;;;3.85;3.58;;;21.10;99.90;;;;;;5054474;28;20204;-83
2022/06/27 03:27:07;;;;;;;3.65;3.42;;;21.10;99.90;;;;;;5054391;28;20236;-83
2022/06/27 03:29:37;;;;;;;4.22;3.30;;;21.00;99.90;;;;;;5054126;28;20292;-83
2022/06/27 03:32:06;;;;;;;4.10;3.72;;;21.10;99.90;;;;;;5054179;28;20316;-84
2022/06/27 03:34:34;;;;;;;3.45;3.25;;;21.10;99.90;;;;;;5053954;28;20221;-83
2022/06/27 03:37:03;;;;;;;2.92;2.72;;;21.10;99.90;;;;;;5053911;28;20257;-83
2022/06/27 03:39:32;;;;;;;2.65;2.45;;;21.10;99.90;;;;;;5054044;28;20233;-83
2022/06/27 03:42:00;;;;;;;3.10;2.90;;;21.20;99.90;;;;;;5054066;28;20272;-83
2022/06/27 03:44:29;;;;;;;3.33;2.60;;;21.30;99.90;;;;;;5054070;28;20285;-83
2022/06/27 03:46:59;;;;;;;2.50;2.30;;;21.30;99.90;;;;;;5054135;28;20289;-83
2022/06/27 03:52:13;;;;;;;2.58;2.38;;;21.40;99.90;;;;;;5053593;28;20285;-83
2022/06/27 03:54:41;;;;;;;2.95;2.55;;;21.40;99.90;;;;;;5053474;28;20214;-83
2022/06/27 03:57:09;;;;;;;1.92;1.83;;;21.50;99.90;;;;;;5053841;28;20202;-83
2022/06/27 03:59:38;;;;;;;3.67;2.88;;;21.50;99.90;;;;;;5053554;28;20293;-83
2022/06/27 04:02:09;;;;;;;2.55;2.35;;;21.50;99.90;;;;;;5053467;28;20233;-83
2022/06/27 04:04:37;;;;;;;3.22;2.50;;;21.60;99.90;;;;;;5053612;28;20269;-83
2022/06/27 04:07:06;;;;;;;2.55;2.33;;;21.60;99.90;;;;;;5053274;28;20209;-83
2022/06/27 04:09:34;;;;;;;2.50;2.30;;;21.60;99.90;;;;;;5053709;28;20209;-84
2022/06/27 04:12:02;;;;;;;2.65;2.42;;;21.60;99.90;;;;;;5052686;28;20261;-83
2022/06/27 04:14:30;;;;;;;11.02;2.70;;;21.70;99.90;;;;;;5053140;28;20221;-84
2022/06/27 04:16:58;;;;;;;2.03;1.92;;;21.70;99.90;;;;;;5053636;28;20292;-84
2022/06/27 04:19:28;;;;;;;2.45;2.25;;;21.70;99.90;;;;;;5053108;28;20213;-83
2022/06/27 04:21:56;;;;;;;2.78;2.58;;;21.70;99.90;;;;;;5053289;28;20217;-83
2022/06/27 04:24:25;;;;;;;12.57;2.45;;;21.80;99.90;;;;;;5053727;28;20322;-83
2022/06/27 04:26:53;;;;;;;4.22;2.33;;;21.80;99.90;;;;;;5053505;28;20229;-84
2022/06/27 04:29:22;;;;;;;2.67;2.45;;;21.80;99.90;;;;;;5052853;28;20205;-84
2022/06/27 04:31:50;;;;;;;2.65;2.45;;;21.90;99.90;;;;;;5053505;28;20217;-84
2022/06/27 04:34:18;;;;;;;2.97;2.53;;;21.90;99.90;;;;;;5052807;28;20222;-84
2022/06/27 04:36:48;;;;;;;3.38;2.63;;;22.00;99.90;;;;;;5053271;28;20290;-84
2022/06/27 04:39:17;;;;;;;2.88;2.58;;;22.00;99.90;;;;;;5053132;28;20233;-84
2022/06/27 04:41:46;;;;;;;2.60;2.40;;;22.10;99.90;;;;;;5052733;28;20206;-84
2022/06/27 04:44:14;;;;;;;3.35;3.00;;;22.10;99.90;;;;;;5052770;28;20202;-83
2022/06/27 04:46:43;;;;;;;2.55;2.35;;;22.10;99.90;;;;;;5052767;28;20219;-84
2022/06/27 04:49:12;;;;;;;3.00;2.63;;;22.20;99.90;;;;;;5052866;28;20259;-84
2022/06/27 04:51:41;;;;;;;2.40;2.30;;;22.20;99.90;;;;;;5052890;28;20297;-84
2022/06/27 04:54:11;;;;;;;2.45;2.25;;;22.20;99.90;;;;;;5052671;28;20252;-84
2022/06/27 04:56:41;;;;;;;2.83;2.60;;;22.20;99.90;;;;;;5052715;28;20202;-83
2022/06/27 04:59:09;;;;;;;4.32;2.72;;;22.20;99.90;;;;;;5052953;28;20288;-84
2022/06/27 05:01:37;;;;;;;2.97;2.67;;;22.20;99.90;;;;;;5052380;28;20269;-83
2022/06/27 05:04:06;;;;;;;2.90;2.50;;;22.30;99.90;;;;;;5052791;28;20212;-84
2022/06/27 05:06:34;;;;;;;2.95;2.42;;;22.40;99.90;;;;;;5053042;28;20206;-83
2022/06/27 05:09:02;;;;;;;2.78;2.58;;;22.40;99.90;;;;;;5052326;28;20292;-83
2022/06/27 05:11:32;;;;;;;2.65;2.38;;;22.50;99.90;;;;;;5052609;28;20216;-84
2022/06/27 05:14:00;;;;;;;3.25;2.40;;;22.60;99.90;;;;;;5052630;28;20221;-84
2022/06/27 05:16:29;;;;;;;2.45;2.25;;;22.60;99.90;;;;;;5052873;28;20284;-84
2022/06/27 05:18:57;;;;;;;4.85;2.75;;;22.70;99.90;;;;;;5053055;28;20216;-84
2022/06/27 05:21:42;;;;;;;2.78;2.45;;;22.80;99.90;;;;;;5052436;28;20209;-84
2022/06/27 05:24:11;;;;;;;2.50;2.30;;;22.90;99.90;;;;;;5055711;28;20232;-84
2022/06/27 05:26:40;;;;;;;12.23;2.72;;;23.00;99.90;;;;;;5056772;28;20292;-84
2022/06/27 05:29:09;;;;;;;4.03;3.00;;;23.00;99.90;;;;;;5056729;28;20217;-84
2022/06/27 05:31:37;;;;;;;2.65;2.45;;;23.20;99.90;;;;;;5056353;28;20205;-84
2022/06/27 05:34:05;;;;;;;5.05;2.60;;;23.20;99.90;;;;;;5056447;28;20233;-84
2022/06/27 05:36:33;;;;;;;2.28;2.08;;;23.30;99.90;;;;;;5056442;28;20239;-84
2022/06/27 05:39:03;;;;;;;3.90;2.45;;;23.30;99.90;;;;;;5056694;28;20201;-84
2022/06/27 05:41:31;;;;;;;2.42;2.22;;;23.40;99.90;;;;;;5056152;28;20198;-84
2022/06/27 05:44:01;;;;;;;2.72;2.10;;;23.50;99.90;;;;;;5056583;28;20289;-84
2022/06/27 05:46:29;;;;;;;2.00;1.90;;;23.60;99.90;;;;;;5056383;28;20206;-84
2022/06/27 05:49:00;;;;;;;3.00;2.40;;;23.70;99.90;;;;;;5056242;28;20210;-84
2022/06/27 05:51:29;;;;;;;2.08;1.98;;;23.70;99.90;;;;;;5056044;28;20255;-84
2022/06/27 05:53:58;;;;;;;2.08;1.80;;;23.90;99.90;;;;;;5056042;28;20373;-84
2022/06/27 05:56:28;;;;;;;3.00;2.67;;;24.00;99.90;;;;;;5056285;28;20269;-85
2022/06/27 05:58:58;;;;;;;2.47;2.28;;;24.10;99.90;;;;;;5055996;28;20194;-86
2022/06/27 06:01:28;;;;;;;3.63;2.25;;;24.20;99.90;;;;;;5055329;28;20202;-83
2022/06/27 06:03:57;;;;;;;2.60;2.40;;;24.30;99.90;;;;;;5056397;28;20316;-80
2022/06/27 06:06:25;;;;;;;4.88;2.97;;;24.40;99.90;;;;;;5055736;28;20209;-81
2022/06/27 06:08:54;;;;;;;2.70;2.50;;;24.50;99.90;;;;;;5055768;28;20201;-83
2022/06/27 06:11:23;;;;;;;4.00;2.72;;;24.50;99.90;;;;;;5056094;28;20208;-84
2022/06/27 06:13:52;;;;;;;5.18;2.65;;;24.60;99.90;;;;;;5056247;28;20226;-84
2022/06/27 06:16:20;;;;;;;3.47;2.63;;;24.60;99.90;;;;;;5055749;28;20310;-83
2022/06/27 06:18:52;;;;;;;2.50;2.30;;;24.70;99.90;;;;;;5055967;28;20212;-85
2022/06/27 06:21:21;;;;;;;3.72;2.50;;;24.80;99.90;;;;;;5055255;28;20269;-85
2022/06/27 06:23:51;;;;;;;3.13;2.70;;;24.90;99.90;;;;;;5055434;28;20308;-85
2022/06/27 06:26:20;;;;;;;3.20;2.90;;;25.00;99.90;;;;;;5055719;28;20236;-85
2022/06/27 06:28:51;;;;;;;2.80;2.53;;;25.10;99.90;;;;;;5055532;28;20209;-85
2022/06/27 06:31:22;;;;;;;2.13;2.03;;;25.20;99.90;;;;;;5055352;28;20209;-85
2022/06/27 06:33:55;;;;;;;3.28;2.55;;;25.30;99.90;;;;;;5055184;28;20222;-85
2022/06/27 06:36:24;;;;;;;3.72;2.85;;;25.40;99.90;;;;;;5055301;28;20250;-84
2022/06/27 06:38:53;;;;;;;4.22;2.40;;;25.40;99.90;;;;;;5055403;28;20212;-85
2022/06/27 06:41:21;;;;;;;2.45;2.28;;;25.60;99.90;;;;;;5055130;28;20285;-85
2022/06/27 06:43:50;;;;;;;3.25;2.60;;;25.70;99.90;;;;;;5054752;28;20337;-85
2022/06/27 06:46:19;;;;;;;2.92;2.55;;;25.80;99.90;;;;;;5054924;28;20280;-85
2022/06/27 06:48:47;;;;;;;2.80;2.60;;;25.90;99.90;;;;;;5055322;28;20208;-85
2022/06/27 06:51:18;;;;;;;2.97;2.70;;;26.10;99.90;;;;;;5054732;28;20202;-85
2022/06/27 06:53:47;;;;;;;3.85;2.58;;;26.10;99.90;;;;;;5055012;28;20225;-85
2022/06/27 06:56:15;;;;;;;2.42;1.92;;;26.30;99.90;;;;;;5054549;28;20217;-85
2022/06/27 06:58:44;;;;;;;2.75;2.55;;;26.50;99.90;;;;;;5054721;28;20284;-84
2022/06/27 07:01:12;;;;;;;2.85;2.58;;;26.70;99.90;;;;;;5054415;28;20208;-85
2022/06/27 07:03:40;;;;;;;2.67;2.47;;;27.00;99.90;;;;;;5054891;28;20264;-85
2022/06/27 07:06:09;;;;;;;2.25;2.08;;;27.20;99.90;;;;;;5054691;28;20236;-85
2022/06/27 07:08:40;;;;;;;2.70;2.50;;;27.30;99.90;;;;;;5055028;28;20240;-85
2022/06/27 07:11:09;;;;;;;2.67;2.42;;;27.70;99.90;;;;;;5054092;28;20274;-85
2022/06/27 07:13:37;;;;;;;9.25;2.75;;;27.90;99.90;;;;;;5054647;28;20272;-85
2022/06/27 07:16:07;;;;;;;9.20;3.30;;;28.10;99.90;;;;;;5054627;28;20225;-85
2022/06/27 07:18:37;;;;;;;4.13;2.70;;;28.50;99.90;;;;;;5054443;28;20209;-85
2022/06/27 07:21:06;;;;;;;2.83;2.60;;;28.80;99.90;;;;;;5054537;28;20217;-85
2022/06/27 07:23:34;;;;;;;3.35;2.63;;;29.40;99.90;;;;;;5054426;28;20225;-85
2022/06/27 07:26:04;;;;;;;3.22;2.50;;;30.10;99.90;;;;;;5054572;28;20206;-85
2022/06/27 07:28:32;;;;;;;2.55;2.35;;;30.50;99.90;;;;;;5054458;28;20248;-85
2022/06/27 07:31:01;;;;;;;3.20;2.53;;;30.80;99.90;;;;;;5054143;28;20229;-85
2022/06/27 07:33:30;;;;;;;5.15;2.80;;;31.00;99.90;;;;;;5054411;28;20225;-85
2022/06/27 07:35:58;;;;;;;3.22;2.50;;;31.20;99.90;;;;;;5054748;28;20373;-85
2022/06/27 07:38:27;;;;;;;2.58;2.38;;;31.50;99.90;;;;;;5054157;28;20240;-86
2022/06/27 07:40:56;;;;;;;3.33;2.15;;;31.70;99.90;;;;;;5054147;28;20198;-85
2022/06/27 07:43:27;;;;;;;3.67;2.53;;;32.40;99.90;;;;;;5054411;28;20272;-85
2022/06/27 07:45:56;;;;;;;2.38;2.10;;;32.80;99.90;;;;;;5053389;28;20201;-85
2022/06/27 07:48:25;;;;;;;5.78;1.80;;;33.00;99.90;;;;;;5054051;28;20259;-85
2022/06/27 07:50:54;;;;;;;2.10;2.00;;;33.30;99.90;;;;;;5053604;28;20221;-86
2022/06/27 07:53:24;;;;;;;3.92;2.90;;;33.90;99.90;;;;;;5053500;28;20221;-85
2022/06/27 07:55:54;;;;;;;3.90;2.40;;;34.40;98.80;;;;;;5053785;28;20217;-85
2022/06/27 07:58:33;;;;;;;2.35;1.92;;;34.60;97.80;;;;;;5053834;28;20201;-85
2022/06/27 08:01:03;;;;;;;2.40;2.20;;;35.30;96.50;;;;;;5053607;28;20263;-85
2022/06/27 08:03:42;;;;;;;2.50;2.28;;;35.70;94.80;;;;;;5053824;28;20236;-85
2022/06/27 08:06:15;;;;;;;3.42;2.00;;;36.30;93.50;;;;;;5053484;28;20216;-85
2022/06/27 08:08:45;;;;;;;2.35;2.15;;;36.10;93.40;;;;;;5053580;28;20262;-85
2022/06/27 08:11:16;;;;;;;2.30;2.10;;;36.60;91.50;;;;;;5053032;28;20200;-85
2022/06/27 08:13:47;;;;;;;3.53;1.88;;;36.30;90.80;;;;;;5053118;28;20289;-85
2022/06/27 08:16:18;;;;;;;1.83;1.73;;;36.20;90.50;;;;;;5053193;28;20225;-85
2022/06/27 08:18:48;;;;;;;1.75;1.65;;;36.40;89.70;;;;;;5053337;28;20275;-86
2022/06/27 08:21:18;;;;;;;3.22;2.05;;;35.80;90.30;;;;;;5053122;28;20209;-85
2022/06/27 08:23:48;;;;;;;2.20;1.92;;;35.60;90.60;;;;;;5053371;28;20267;-85
2022/06/27 08:26:17;;;;;;;2.20;1.90;;;36.10;89.50;;;;;;5053576;28;20236;-86
2022/06/27 08:28:48;;;;;;;2.72;2.53;;;36.50;89.10;;;;;;5053504;28;20292;-85
2022/06/27 08:31:17;;;;;;;2.40;2.20;;;37.70;85.80;;;;;;5052796;28;20209;-85
2022/06/27 08:33:58;;;;;;;2.10;1.90;;;38.30;83.50;;;;;;5053016;28;20331;-85
2022/06/27 08:36:27;;;;;;;1.80;1.70;;;38.40;81.60;;;;;;5053230;28;20221;-85
2022/06/27 08:39:04;;;;;;;2.00;1.90;;;38.40;82.70;;;;;;5053178;28;20209;-86
2022/06/27 08:41:33;;;;;;;2.28;1.98;;;38.60;80.00;;;;;;5052828;28;20294;-86
2022/06/27 08:44:06;;;;;;;2.40;2.20;;;38.60;79.00;;;;;;5053025;28;20240;-86
2022/06/27 08:46:36;;;;;;;3.80;2.38;;;38.10;79.50;;;;;;5053212;28;20207;-85
2022/06/27 08:49:05;;;;;;;2.83;2.42;;;38.20;79.80;;;;;;5052735;28;20220;-86
2022/06/27 08:51:34;;;;;;;3.67;2.20;;;38.10;79.10;;;;;;5053072;28;20213;-86
2022/06/27 08:54:04;;;;;;;3.47;2.03;;;38.00;78.40;;;;;;5052751;28;20279;-86
2022/06/27 08:56:32;;;;;;;3.28;1.98;;;37.60;77.30;;;;;;5052569;28;20312;-86
2022/06/27 08:59:03;;;;;;;2.20;2.00;;;37.50;77.80;;;;;;5052342;28;20202;-85
2022/06/27 09:01:32;;;;;;;2.10;1.80;;;37.00;77.60;;;;;;5052457;28;20205;-86
2022/06/27 09:04:03;;;;;;;2.92;2.33;;;37.00;77.80;;;;;;5052747;28;20205;-86
2022/06/27 09:06:35;;;;;;;3.92;2.05;;;37.10;76.30;;;;;;5052456;28;20205;-86
2022/06/27 09:09:09;;;;;;;4.45;2.50;;;37.30;76.80;;;;;;5052534;28;20240;-86
2022/06/27 09:11:39;;;;;;;2.33;2.13;;;37.50;76.70;;;;;;5052302;28;20265;-86
2022/06/27 09:14:33;;;;;;;2.30;1.88;;;37.80;75.60;;;;;;5052489;28;20205;-86
2022/06/27 09:17:04;;;;;;;2.33;2.10;;;37.50;77.10;;;;;;5052649;28;20248;-86
2022/06/27 09:19:46;;;;;;;2.28;2.05;;;38.10;75.10;;;;;;5052849;28;20197;-86
2022/06/27 09:22:16;;;;;;;2.78;2.30;;;37.70;74.80;;;;;;5052306;28;20300;-86
2022/06/27 09:25:05;;;;;;;4.85;2.30;;;37.80;75.60;;;;;;5052541;28;20232;-86
2022/06/27 09:27:38;;;;;;;2.13;2.00;;;38.30;73.00;;;;;;5052592;28;20205;-86
2022/06/27 09:30:27;;;;;;;3.75;2.22;;;39.00;73.20;;;;;;5052209;28;20209;-86
2022/06/27 09:32:59;;;;;;;2.00;1.90;;;38.90;71.20;;;;;;5052674;28;20225;-86
2022/06/27 09:35:31;;;;;;;4.35;2.22;;;38.90;70.30;;;;;;5052475;28;20212;-86
2022/06/27 09:38:01;;;;;;;3.67;2.33;;;38.20;69.00;;;;;;5052236;28;20291;-86
2022/06/27 09:40:33;;;;;;;3.75;2.20;;;37.30;70.60;;;;;;5052420;28;20244;-86
2022/06/27 09:43:06;;;;;;;2.17;1.92;;;36.80;70.10;;;;;;5052043;28;20231;-86
2022/06/27 09:45:38;;;;;;;2.28;2.08;;;37.10;70.40;;;;;;5052482;28;20208;-86
2022/06/27 09:48:16;;;;;;;2.80;2.17;;;36.70;70.10;;;;;;5052445;28;20216;-86
2022/06/27 09:50:47;;;;;;;2.55;2.35;;;36.80;69.30;;;;;;5052220;28;20239;-86
2022/06/27 09:53:18;;;;;;;2.22;1.83;;;36.90;69.40;;;;;;5052083;28;20230;-86
2022/06/27 09:55:48;;;;;;;2.50;2.30;;;37.10;69.80;;;;;;5052303;28;20209;-86
2022/06/27 09:58:17;;;;;;;7.97;3.70;;;36.60;69.90;;;;;;5051745;28;20249;-86
2022/06/27 10:00:48;;;;;;;3.38;2.65;;;36.90;70.70;;;;;;5051879;28;20222;-86
2022/06/27 10:03:17;;;;;;;3.08;2.10;;;37.40;69.20;;;;;;5052217;28;20253;-86
2022/06/27 10:05:45;;;;;;;2.63;2.42;;;37.50;68.70;;;;;;5052263;28;20206;-86
2022/06/27 10:08:14;;;;;;;2.38;1.98;;;37.10;68.40;;;;;;5051968;28;20198;-86
2022/06/27 10:11:13;;;;;;;10.93;2.22;;;37.40;69.60;;;;;;5055429;28;20209;-86
2022/06/27 10:13:43;;;;;;;2.58;2.15;;;37.40;69.00;;;;;;5014268;28;20238;-86
2022/06/27 10:16:14;;;;;;;2.20;1.98;;;37.80;68.30;;;;;;5046830;28;20205;-86
2022/06/27 10:18:54;;;;;;;2.08;1.88;;;38.00;68.10;;;;;;5056164;28;20211;-86
2022/06/27 10:21:26;;;;;;;2.25;1.88;;;38.00;67.70;;;;;;5055540;28;20204;-86
2022/06/27 10:24:35;;;;;;;4.80;2.63;;;37.50;66.00;;;;;;5055442;28;20225;-86
2022/06/27 10:27:08;;;;;;;2.67;2.28;;;37.20;67.60;;;;;;5055649;28;20257;-86
2022/06/27 10:29:42;;;;;;;2.90;2.35;;;37.80;68.30;;;;;;5055528;28;20213;-86
2022/06/27 10:32:43;;;;;;;2.33;2.13;;;37.80;66.70;;;;;;5055428;28;20225;-86
2022/06/27 10:35:14;;;;;;;2.75;2.25;;;37.90;66.40;;;;;;5055669;28;20270;-87
2022/06/27 10:37:45;;;;;;;6.35;2.35;;;37.70;65.50;;;;;;5055380;28;20229;-86
2022/06/27 10:40:55;;;;;;;6.82;2.45;;;37.30;65.50;;;;;;5054945;28;20224;-86
2022/06/27 10:43:46;;;;;;;2.45;2.25;;;37.20;66.70;;;;;;5055115;28;20309;-86
2022/06/27 10:46:42;;;;;;;3.00;2.40;;;36.60;67.60;;;;;;5055019;28;20263;-86
2022/06/27 10:49:23;;;;;;;2.60;2.35;;;36.00;68.30;;;;;;5055126;28;20264;-86
2022/06/27 10:51:53;;;;;;;3.63;2.30;;;35.70;68.90;;;;;;5054753;28;20258;-86
2022/06/27 10:54:21;;;;;;;3.15;2.22;;;36.00;69.40;;;;;;5055070;28;20243;-86
2022/06/27 10:56:51;;;;;;;2.45;2.25;;;36.50;68.00;;;;;;5054603;28;20200;-86
2022/06/27 11:00:02;;;;;;;2.20;2.00;;;36.80;67.00;;;;;;5055009;28;20215;-86
2022/06/27 11:02:33;;;;;;;2.50;2.30;;;37.50;66.50;;;;;;5054406;28;20292;-86
2022/06/27 11:05:04;;;;;;;2.50;2.30;;;37.40;66.10;;;;;;5054650;28;20285;-86
2022/06/27 11:07:33;;;;;;;3.40;2.47;;;37.70;65.90;;;;;;5054812;28;20201;-86
2022/06/27 11:10:02;;;;;;;4.28;2.30;;;37.70;65.80;;;;;;5054815;28;20284;-86
2022/06/27 11:12:35;;;;;;;2.42;2.17;;;37.90;65.10;;;;;;5054537;28;20229;-86
2022/06/27 11:15:06;;;;;;;2.20;2.00;;;38.00;64.70;;;;;;5054298;28;20208;-87
2022/06/27 11:17:41;;;;;;;3.92;2.17;;;38.10;65.00;;;;;;5054066;28;20308;-87
2022/06/27 11:20:20;;;;;;;3.03;2.15;;;38.30;64.80;;;;;;5053408;28;20216;-86
2022/06/27 11:23:06;;;;;;;4.95;2.05;;;38.60;64.00;;;;;;5054510;28;20221;-87
2022/06/27 11:25:38;;;;;;;4.38;2.28;;;38.80;64.00;;;;;;5054443;28;20216;-86
2022/06/27 11:33:59;;;;;;;2.70;2.50;;;38.30;62.90;;;;;;4992691;28;20238;-86
2022/06/27 11:36:29;;;;;;;2.55;2.35;;;37.80;63.10;;;;;;5030230;28;20233;-86
2022/06/27 11:38:57;;;;;;;2.75;2.10;;;38.10;63.60;;;;;;5053799;28;20225;-86
2022/06/27 11:41:30;;;;;;;2.50;2.22;;;38.40;62.80;;;;;;5053929;28;20255;-86
2022/06/27 11:44:02;;;;;;;2.75;2.47;;;38.30;63.50;;;;;;5053808;28;20256;-86
2022/06/27 11:46:33;;;;;;;2.20;2.00;;;38.20;62.70;;;;;;5053780;28;20244;-86
2022/06/27 11:49:05;;;;;;;2.33;2.00;;;38.20;62.90;;;;;;5054051;28;20284;-86
2022/06/27 11:51:37;;;;;;;2.00;1.90;;;38.10;62.20;;;;;;5053529;28;20236;-86
2022/06/27 11:54:09;;;;;;;6.95;2.65;;;37.70;62.60;;;;;;5053631;28;20213;-87
2022/06/27 11:56:39;;;;;;;2.22;2.05;;;37.20;63.20;;;;;;5053557;28;20283;-86
2022/06/27 11:59:09;;;;;;;3.95;2.60;;;36.90;63.70;;;;;;5053328;28;20225;-86
2022/06/27 12:01:52;;;;;;;4.68;2.13;;;37.10;64.70;;;;;;5052956;28;20202;-85
2022/06/27 12:04:22;;;;;;;3.80;2.45;;;37.60;63.70;;;;;;5053342;28;20216;-86
2022/06/27 12:06:55;;;;;;;3.53;2.63;;;37.70;63.70;;;;;;5053308;28;20287;-86
2022/06/27 12:09:25;;;;;;;2.40;2.05;;;37.90;63.70;;;;;;5053167;28;20232;-86
2022/06/27 12:11:56;;;;;;;3.30;2.50;;;37.90;62.20;;;;;;5052721;28;20205;-86
2022/06/27 12:14:25;;;;;;;2.90;2.28;;;37.40;63.00;;;;;;5052969;28;20228;-83
2022/06/27 12:16:55;;;;;;;3.45;2.28;;;37.30;62.80;;;;;;5053045;28;20300;-83
2022/06/27 12:19:27;;;;;;;3.80;2.47;;;37.50;63.40;;;;;;5053984;28;20223;-83
2022/06/27 12:21:57;;;;;;;2.28;2.08;;;37.40;63.00;;;;;;5054436;28;20221;-85
2022/06/27 12:24:30;;;;;;;3.03;2.30;;;37.40;62.90;;;;;;5053130;28;20201;-86
2022/06/27 12:26:58;;;;;;;5.07;2.33;;;37.00;62.50;;;;;;5053125;28;20225;-86
2022/06/27 12:29:26;;;;;;;2.55;2.35;;;37.10;62.80;;;;;;5052652;28;20288;-86
2022/06/27 12:31:55;;;;;;;3.72;2.42;;;37.30;62.50;;;;;;5053032;28;20294;-86
2022/06/27 12:34:24;;;;;;;3.47;2.72;;;37.10;62.20;;;;;;5053018;28;20269;-86
2022/06/27 12:36:52;;;;;;;2.75;2.35;;;37.20;63.00;;;;;;5052993;28;20302;-86
2022/06/27 12:39:23;;;;;;;3.10;2.53;;;37.30;63.00;;;;;;5052516;28;20252;-86
2022/06/27 12:41:52;;;;;;;5.45;2.53;;;37.20;62.70;;;;;;5052431;28;20263;-86
2022/06/27 12:44:20;;;;;;;3.63;2.50;;;37.00;63.70;;;;;;5052685;28;20236;-86
2022/06/27 12:46:48;;;;;;;3.30;2.13;;;36.80;64.30;;;;;;5052683;28;20201;-83
2022/06/27 12:49:24;;;;;;;3.25;2.25;;;36.90;64.00;;;;;;5052674;28;20200;-84
2022/06/27 12:51:52;;;;;;;2.50;2.30;;;37.10;64.00;;;;;;5052138;28;20286;-84
2022/06/27 12:54:29;;;;;;;2.35;2.13;;;36.80;64.20;;;;;;5052706;28;20205;-84
2022/06/27 12:56:58;;;;;;;2.50;2.30;;;36.70;64.20;;;;;;5052704;28;20296;-84
2022/06/27 12:59:26;;;;;;;2.85;2.30;;;36.40;64.00;;;;;;5052068;28;20225;-84
2022/06/27 13:01:55;;;;;;;4.95;2.20;;;36.50;63.40;;;;;;5052088;28;20307;-84
2022/06/27 13:04:23;;;;;;;8.48;2.50;;;36.70;62.90;;;;;;5052533;28;20269;-84
2022/06/27 13:06:51;;;;;;;6.88;2.38;;;36.70;63.10;;;;;;5053015;28;20206;-84
2022/06/27 13:09:19;;;;;;;2.92;2.30;;;36.30;62.90;;;;;;5052859;28;20205;-84
2022/06/27 13:11:49;;;;;;;2.65;2.45;;;36.00;63.70;;;;;;5051790;28;20283;-84